Time;durP1;ratioP1;P1;durP2;ratioP2;P2;SDS_P1;SDS_P2;PMS_P1;PMS_P2;Temp;Humidity;BMP_temperature;BMP_pressure;BME280_temperature;BME280_humidity;BME280_pressure;Samples;Min_cycle;Max_cycle;Signal;HPM_P1;HPM_P2
2023/10/05 00:03:50;;;;;;;18.65;3.97;;;14.20;99.90;;;;;;5054439;28;20060;-77
2023/10/05 00:06:23;;;;;;;18.35;3.65;;;14.20;99.90;;;;;;5055445;28;20392;-76
2023/10/05 00:08:49;;;;;;;15.77;3.53;;;14.30;99.90;;;;;;5055572;28;20045;-77
2023/10/05 00:11:31;;;;;;;17.55;3.60;;;14.30;99.90;;;;;;5037797;28;20396;-77
2023/10/05 00:13:58;;;;;;;18.37;4.17;;;14.20;99.90;;;;;;5054543;28;20041;-77
2023/10/05 00:16:37;;;;;;;14.93;4.18;;;14.30;99.90;;;;;;5053948;28;20087;-77
2023/10/05 00:19:11;;;;;;;15.65;3.53;;;14.20;99.90;;;;;;5054300;28;20459;-77
2023/10/05 00:21:39;;;;;;;18.50;4.07;;;14.30;99.90;;;;;;5054356;28;20041;-77
2023/10/05 00:24:06;;;;;;;17.52;4.03;;;14.20;99.90;;;;;;5055423;28;20124;-77
2023/10/05 00:26:36;;;;;;;22.30;3.88;;;14.30;99.90;;;;;;5054131;28;20487;-77
2023/10/05 00:31:47;;;;;;;19.02;4.03;;;14.20;99.90;;;;;;5054025;28;20060;-76
2023/10/05 00:34:24;;;;;;;18.63;3.85;;;14.20;99.90;;;;;;5033850;28;20107;-77
2023/10/05 00:36:58;;;;;;;18.90;3.83;;;14.20;99.90;;;;;;5033837;28;20053;-77
2023/10/05 00:39:25;;;;;;;15.18;3.28;;;14.20;99.90;;;;;;5033688;28;20057;-77
2023/10/05 00:44:30;;;;;;;16.92;3.83;;;14.20;99.90;;;;;;5033403;28;20064;-77
2023/10/05 00:47:00;;;;;;;15.90;3.35;;;14.20;99.90;;;;;;5033539;28;20045;-77
2023/10/05 00:49:30;;;;;;;13.27;3.92;;;14.20;99.90;;;;;;5034825;28;20046;-77
2023/10/05 00:52:15;;;;;;;17.55;4.00;;;14.20;99.90;;;;;;5033369;28;20156;-77
2023/10/05 00:54:50;;;;;;;22.10;3.30;;;14.20;99.90;;;;;;5033408;28;20076;-77
2023/10/05 00:57:20;;;;;;;19.95;3.58;;;14.20;99.90;;;;;;5033747;28;20077;-77
2023/10/05 01:00:14;;;;;;;14.90;3.67;;;14.20;99.90;;;;;;5033642;28;20091;-77
2023/10/05 01:02:35;;;;;;;17.92;3.55;;;14.10;99.90;;;;;;5033381;28;20151;-77
2023/10/05 01:05:09;;;;;;;11.10;3.40;;;14.10;99.90;;;;;;5033389;28;20473;-77
2023/10/05 01:07:49;;;;;;;19.30;3.72;;;14.10;99.90;;;;;;5033223;28;20493;-77
2023/10/05 01:12:50;;;;;;;19.58;3.25;;;14.20;99.90;;;;;;5034482;28;20100;-77
2023/10/05 01:15:21;;;;;;;26.95;4.18;;;14.20;99.90;;;;;;5034243;28;20076;-77
2023/10/05 01:17:51;;;;;;;18.80;3.15;;;14.20;99.90;;;;;;5032970;28;20404;-77
2023/10/05 01:22:47;;;;;;;20.98;4.10;;;14.20;99.90;;;;;;5032977;28;20054;-76
2023/10/05 01:25:14;;;;;;;16.55;3.47;;;14.20;99.90;;;;;;5034203;28;20095;-77
2023/10/05 01:27:44;;;;;;;17.92;3.40;;;14.20;99.90;;;;;;5034014;28;20056;-77
2023/10/05 01:30:14;;;;;;;13.40;3.05;;;14.20;99.90;;;;;;5033972;28;20037;-77
2023/10/05 01:32:44;;;;;;;21.70;3.70;;;14.20;99.90;;;;;;5032797;28;20061;-77
2023/10/05 01:35:15;;;;;;;21.58;3.50;;;14.20;99.90;;;;;;5032746;28;20041;-77
2023/10/05 01:37:45;;;;;;;22.42;3.80;;;14.20;99.90;;;;;;5032537;28;20552;-77
2023/10/05 01:40:23;;;;;;;21.52;4.30;;;14.20;99.90;;;;;;5032547;28;20054;-77
2023/10/05 01:42:52;;;;;;;14.88;4.15;;;14.20;99.90;;;;;;5034012;28;20133;-77
2023/10/05 01:45:33;;;;;;;23.10;3.88;;;14.20;99.90;;;;;;5032611;28;20050;-77
2023/10/05 01:48:05;;;;;;;13.65;3.13;;;14.20;99.90;;;;;;5032734;28;20128;-77
2023/10/05 01:50:32;;;;;;;21.70;4.63;;;14.30;99.90;;;;;;5032396;28;20063;-77
2023/10/05 01:55:34;;;;;;;22.25;4.45;;;14.30;99.90;;;;;;5032091;28;20049;-77
2023/10/05 01:58:00;;;;;;;15.18;3.78;;;14.30;99.90;;;;;;5032715;28;20099;-77
2023/10/05 02:00:26;;;;;;;24.13;4.68;;;14.30;99.90;;;;;;5032417;28;20049;-77
2023/10/05 02:02:55;;;;;;;21.95;3.95;;;14.30;99.90;;;;;;5032296;28;20084;-77
2023/10/05 02:05:22;;;;;;;22.50;4.18;;;14.30;99.90;;;;;;5033812;28;20045;-77
2023/10/05 02:07:49;;;;;;;17.70;3.72;;;14.30;99.90;;;;;;5032562;28;20052;-77
2023/10/05 02:10:19;;;;;;;18.60;3.97;;;14.30;99.90;;;;;;5032270;28;20184;-77
2023/10/05 02:12:54;;;;;;;21.10;3.97;;;14.30;99.90;;;;;;5032508;28;20050;-77
2023/10/05 02:15:29;;;;;;;15.15;4.28;;;14.30;99.90;;;;;;5032434;28;20052;-77
2023/10/05 02:17:58;;;;;;;22.45;3.72;;;14.30;99.90;;;;;;5032262;28;20056;-77
2023/10/05 02:22:58;;;;;;;24.92;5.05;;;14.30;99.90;;;;;;5032251;28;20057;-77
2023/10/05 02:25:34;;;;;;;20.75;4.20;;;14.20;99.90;;;;;;5032135;28;20049;-77
2023/10/05 02:28:00;;;;;;;15.40;4.30;;;14.30;99.90;;;;;;5031995;28;20099;-77
2023/10/05 02:30:31;;;;;;;18.58;4.45;;;14.30;99.90;;;;;;5031983;28;20045;-77
2023/10/05 02:33:03;;;;;;;18.67;4.00;;;14.20;99.90;;;;;;5033449;28;20049;-77
2023/10/05 02:35:29;;;;;;;17.63;4.47;;;14.20;99.90;;;;;;5033486;28;20088;-77
2023/10/05 02:37:59;;;;;;;17.83;3.40;;;14.30;99.90;;;;;;5032086;28;20050;-77
2023/10/05 02:40:42;;;;;;;17.70;3.85;;;14.20;99.90;;;;;;5031717;28;20061;-77
2023/10/05 02:43:07;;;;;;;14.20;4.30;;;14.30;99.90;;;;;;5032015;28;20057;-77
2023/10/05 02:45:37;;;;;;;19.30;4.32;;;14.30;99.90;;;;;;5032014;28;20049;-77
2023/10/05 02:48:06;;;;;;;28.33;4.13;;;14.30;99.90;;;;;;5032005;28;20050;-77
2023/10/05 02:50:37;;;;;;;17.63;3.85;;;14.30;99.90;;;;;;5031719;28;20057;-77
2023/10/05 02:53:06;;;;;;;22.13;4.13;;;14.30;99.90;;;;;;5031849;28;20480;-77
2023/10/05 02:55:36;;;;;;;19.45;4.57;;;14.30;99.90;;;;;;5031797;28;20053;-77
2023/10/05 02:58:03;;;;;;;23.00;5.32;;;14.30;99.90;;;;;;5031839;28;20514;-77
2023/10/05 03:00:29;;;;;;;24.23;4.88;;;14.30;99.90;;;;;;5031907;28;20057;-77
2023/10/05 03:02:54;;;;;;;22.92;4.28;;;14.30;99.90;;;;;;5032778;28;20176;-77
2023/10/05 03:05:20;;;;;;;24.80;4.07;;;14.30;99.90;;;;;;5031929;28;20056;-77
2023/10/05 03:07:48;;;;;;;16.63;3.92;;;14.30;99.90;;;;;;5034144;28;20029;-77
2023/10/05 03:10:16;;;;;;;24.38;5.43;;;14.30;99.90;;;;;;5035619;28;20053;-77
2023/10/05 03:12:43;;;;;;;17.83;4.20;;;14.30;99.90;;;;;;5036655;28;20045;-77
2023/10/05 03:15:09;;;;;;;18.73;4.30;;;14.30;99.90;;;;;;5035613;28;20045;-77
2023/10/05 03:17:37;;;;;;;18.65;4.30;;;14.40;99.90;;;;;;5037058;28;20053;-77
2023/10/05 03:20:18;;;;;;;20.38;4.40;;;14.40;99.90;;;;;;5036594;28;20038;-77
2023/10/05 03:22:46;;;;;;;18.95;4.72;;;14.40;99.90;;;;;;5035469;28;20135;-77
2023/10/05 03:25:14;;;;;;;24.10;4.20;;;14.40;99.90;;;;;;5035402;28;20499;-77
2023/10/05 03:27:40;;;;;;;15.27;4.35;;;14.40;99.90;;;;;;5035176;28;20060;-76
2023/10/05 03:30:07;;;;;;;22.58;3.97;;;14.40;99.90;;;;;;5034888;28;20038;-77
2023/10/05 03:32:35;;;;;;;19.67;4.38;;;14.40;99.90;;;;;;5034941;28;20048;-77
2023/10/05 03:35:02;;;;;;;22.75;4.22;;;14.50;99.90;;;;;;5036247;28;20061;-77
2023/10/05 03:37:31;;;;;;;17.73;3.83;;;14.40;99.90;;;;;;5034968;28;20492;-77
2023/10/05 03:42:31;;;;;;;19.20;3.97;;;14.40;99.90;;;;;;5034904;28;20065;-77
2023/10/05 03:47:29;;;;;;;25.98;5.10;;;14.40;99.90;;;;;;5035042;28;20562;-77
2023/10/05 03:49:55;;;;;;;18.02;4.07;;;14.40;99.90;;;;;;5036036;28;20056;-77
2023/10/05 03:52:21;;;;;;;16.80;4.15;;;14.40;99.90;;;;;;5035957;28;20413;-77
2023/10/05 03:54:46;;;;;;;24.25;4.25;;;14.40;99.90;;;;;;5034871;28;20508;-77
2023/10/05 03:57:13;;;;;;;27.63;4.32;;;14.40;99.90;;;;;;5035652;28;20041;-77
2023/10/05 03:59:39;;;;;;;20.58;3.95;;;14.40;99.90;;;;;;5034750;28;20096;-77
2023/10/05 04:02:05;;;;;;;22.30;5.57;;;14.40;99.90;;;;;;5035745;28;20060;-77
2023/10/05 04:04:31;;;;;;;17.73;4.55;;;14.40;99.90;;;;;;5035683;28;20049;-77
2023/10/05 04:06:58;;;;;;;15.68;4.00;;;14.40;99.90;;;;;;5034725;28;20103;-77
2023/10/05 04:09:28;;;;;;;27.08;4.40;;;14.40;99.90;;;;;;5034386;28;20053;-77
2023/10/05 04:11:57;;;;;;;26.90;4.35;;;14.40;99.90;;;;;;5034119;28;20492;-77
2023/10/05 04:14:24;;;;;;;24.27;4.35;;;14.40;99.90;;;;;;5034231;28;20044;-77
2023/10/05 04:16:53;;;;;;;23.88;5.38;;;14.40;99.90;;;;;;5034228;28;20386;-77
2023/10/05 04:19:19;;;;;;;21.42;4.68;;;14.40;99.90;;;;;;5033407;28;20489;-77
2023/10/05 04:21:46;;;;;;;23.25;4.38;;;14.40;99.90;;;;;;5034258;28;20053;-77
2023/10/05 04:24:15;;;;;;;15.15;5.18;;;14.40;99.90;;;;;;5034134;28;20099;-77
2023/10/05 04:26:45;;;;;;;24.33;4.40;;;14.40;99.90;;;;;;5034154;28;20400;-77
2023/10/05 04:29:20;;;;;;;18.48;4.57;;;14.40;99.90;;;;;;5034000;28;20049;-77
2023/10/05 04:31:48;;;;;;;28.20;4.93;;;14.40;99.90;;;;;;5033868;28;20055;-76
2023/10/05 04:34:21;;;;;;;23.67;4.32;;;14.40;99.90;;;;;;5034227;28;20117;-77
2023/10/05 04:36:53;;;;;;;20.65;4.18;;;14.40;99.90;;;;;;5035227;28;20073;-77
2023/10/05 04:39:28;;;;;;;26.17;4.90;;;14.40;99.90;;;;;;5033719;28;20053;-77
2023/10/05 04:41:56;;;;;;;19.77;4.57;;;14.40;99.90;;;;;;5034936;28;20053;-76
2023/10/05 04:44:23;;;;;;;27.95;4.78;;;14.30;99.90;;;;;;5033991;28;20049;-77
2023/10/05 04:46:49;;;;;;;19.50;4.80;;;14.30;99.90;;;;;;5033517;28;20069;-77
2023/10/05 04:49:19;;;;;;;19.15;4.47;;;14.30;99.90;;;;;;5033703;28;20049;-77
2023/10/05 04:51:45;;;;;;;15.20;4.32;;;14.30;99.90;;;;;;5033514;28;20045;-76
2023/10/05 04:54:12;;;;;;;25.55;4.88;;;14.30;99.90;;;;;;5033704;28;20049;-77
2023/10/05 05:04:38;;;;;;;23.27;5.25;;;14.40;99.90;;;;;;5033271;28;20481;-76
2023/10/05 05:07:08;;;;;;;24.55;5.53;;;14.30;99.90;;;;;;5033560;28;20053;-76
2023/10/05 05:09:44;;;;;;;19.35;5.22;;;14.40;99.90;;;;;;5033310;28;20052;-76
2023/10/05 05:12:17;;;;;;;21.17;4.85;;;14.30;99.90;;;;;;5033194;28;20049;-77
2023/10/05 05:14:53;;;;;;;19.20;4.82;;;14.30;99.90;;;;;;5033374;28;20129;-77
2023/10/05 05:17:21;;;;;;;26.08;4.70;;;14.40;99.90;;;;;;5033323;28;20053;-77
2023/10/05 05:19:47;;;;;;;22.33;5.32;;;14.40;99.90;;;;;;5034395;28;20099;-77
2023/10/05 05:22:13;;;;;;;27.13;5.15;;;14.40;99.90;;;;;;5034099;28;20046;-77
2023/10/05 05:24:39;;;;;;;23.00;5.10;;;14.40;99.90;;;;;;5034559;28;20124;-77
2023/10/05 05:27:21;;;;;;;23.95;4.95;;;14.40;99.90;;;;;;5034308;28;20042;-77
2023/10/05 05:29:47;;;;;;;20.05;4.22;;;14.30;99.90;;;;;;5032373;28;20396;-77
2023/10/05 05:32:13;;;;;;;25.80;5.30;;;14.40;99.90;;;;;;5032455;28;20538;-77
2023/10/05 05:34:50;;;;;;;17.80;5.50;;;14.40;99.90;;;;;;5034076;28;20056;-77
2023/10/05 05:39:49;;;;;;;26.35;4.72;;;14.40;99.90;;;;;;5032656;28;20052;-77
2023/10/05 05:42:15;;;;;;;24.80;4.97;;;14.40;99.90;;;;;;5032850;28;20134;-77
2023/10/05 05:44:41;;;;;;;20.88;4.57;;;14.40;99.90;;;;;;5032753;28;20108;-77
2023/10/05 05:47:10;;;;;;;18.65;5.03;;;14.50;99.90;;;;;;5033824;28;20045;-77
2023/10/05 05:49:39;;;;;;;26.33;5.07;;;14.40;99.90;;;;;;5032453;28;20489;-77
2023/10/05 05:52:05;;;;;;;23.83;4.90;;;14.40;99.90;;;;;;5033515;28;20061;-77
2023/10/05 05:54:35;;;;;;;22.98;4.85;;;14.40;99.90;;;;;;5031803;28;20059;-77
2023/10/05 05:57:05;;;;;;;25.77;5.32;;;14.40;99.90;;;;;;5033498;28;20132;-77
2023/10/05 05:59:30;;;;;;;21.10;5.07;;;14.40;99.90;;;;;;5032384;28;20050;-77
2023/10/05 06:01:56;;;;;;;17.52;4.90;;;14.40;99.90;;;;;;5032171;28;20041;-78
2023/10/05 06:04:22;;;;;;;18.27;4.90;;;14.40;99.90;;;;;;5032020;28;20041;-77
2023/10/05 06:06:48;;;;;;;22.02;4.85;;;14.40;99.90;;;;;;5033584;28;20068;-77
2023/10/05 06:09:19;;;;;;;23.30;5.22;;;14.30;99.90;;;;;;5032242;28;20084;-78
2023/10/05 06:11:48;;;;;;;25.55;4.65;;;14.30;99.90;;;;;;5032195;28;20111;-77
2023/10/05 06:14:16;;;;;;;24.00;4.72;;;14.30;99.90;;;;;;5034090;28;20073;-77
2023/10/05 06:16:42;;;;;;;21.17;4.80;;;14.30;99.90;;;;;;5041752;28;20599;-76
2023/10/05 06:19:08;;;;;;;21.67;4.40;;;14.30;99.90;;;;;;5031848;28;20064;-77
2023/10/05 06:21:34;;;;;;;21.50;4.47;;;14.30;99.90;;;;;;5031779;28;20045;-77
2023/10/05 06:24:02;;;;;;;19.00;3.85;;;14.30;99.90;;;;;;5032091;28;20061;-77
2023/10/05 06:26:29;;;;;;;22.75;5.32;;;14.30;99.90;;;;;;5033282;28;20056;-77
2023/10/05 06:28:56;;;;;;;16.73;4.30;;;14.30;99.90;;;;;;5032013;28;20044;-76
2023/10/05 06:31:22;;;;;;;19.75;4.35;;;14.30;99.90;;;;;;5031620;28;20080;-77
2023/10/05 06:33:48;;;;;;;21.05;6.05;;;14.30;99.90;;;;;;5031728;28;20048;-77
2023/10/05 06:36:14;;;;;;;20.25;4.72;;;14.30;99.90;;;;;;5033100;28;20037;-77
2023/10/05 06:38:39;;;;;;;20.00;4.78;;;14.40;99.90;;;;;;5031635;28;20053;-76
2023/10/05 06:41:05;;;;;;;20.48;4.50;;;14.40;99.90;;;;;;5031579;28;20057;-77
2023/10/05 06:43:35;;;;;;;23.45;5.10;;;14.40;99.90;;;;;;5035654;28;20050;-77
2023/10/05 06:46:17;;;;;;;19.50;4.57;;;14.40;99.90;;;;;;5036964;28;20489;-75
2023/10/05 06:48:43;;;;;;;20.13;4.20;;;14.40;99.90;;;;;;5036817;28;20044;-76
2023/10/05 06:51:09;;;;;;;23.38;5.60;;;14.40;99.90;;;;;;5035323;28;20136;-76
2023/10/05 06:53:37;;;;;;;18.30;5.13;;;14.40;99.90;;;;;;5035591;28;20129;-75
2023/10/05 06:56:03;;;;;;;19.90;4.65;;;14.50;99.90;;;;;;5035242;28;20124;-76
2023/10/05 06:58:29;;;;;;;21.92;4.05;;;14.40;99.90;;;;;;5035275;28;20060;-75
2023/10/05 07:00:54;;;;;;;22.50;4.88;;;14.40;99.90;;;;;;5035546;28;20045;-76
2023/10/05 07:03:20;;;;;;;27.08;5.78;;;14.50;99.90;;;;;;5036556;28;20451;-76
2023/10/05 07:05:47;;;;;;;20.88;4.40;;;14.50;99.90;;;;;;5035467;28;20048;-76
2023/10/05 07:08:14;;;;;;;18.35;4.93;;;14.50;99.90;;;;;;5035218;28;20500;-76
2023/10/05 07:10:41;;;;;;;17.10;4.53;;;14.50;99.90;;;;;;5034949;28;20472;-77
2023/10/05 07:13:09;;;;;;;18.65;4.15;;;14.50;99.90;;;;;;5036561;28;20068;-76
2023/10/05 07:15:35;;;;;;;23.65;5.25;;;14.50;99.90;;;;;;5034977;28;20379;-76
2023/10/05 07:18:01;;;;;;;20.63;4.50;;;14.50;99.90;;;;;;5035268;28;20065;-76
2023/10/05 07:20:27;;;;;;;17.15;5.05;;;14.60;99.90;;;;;;5034995;28;20514;-76
2023/10/05 07:22:54;;;;;;;26.15;4.80;;;14.50;99.90;;;;;;5034840;28;20060;-77
2023/10/05 07:25:23;;;;;;;26.83;4.47;;;14.50;99.90;;;;;;5035050;28;20072;-77
2023/10/05 07:27:49;;;;;;;23.08;4.88;;;14.50;99.90;;;;;;5034766;28;20069;-77
2023/10/05 07:30:15;;;;;;;22.77;4.80;;;14.60;99.90;;;;;;5034644;28;20049;-76
2023/10/05 07:32:41;;;;;;;19.33;5.10;;;14.60;99.90;;;;;;5034754;28;20132;-75
2023/10/05 07:35:08;;;;;;;26.48;5.50;;;14.60;99.90;;;;;;5034762;28;20547;-77
2023/10/05 07:37:35;;;;;;;19.77;4.70;;;14.60;99.90;;;;;;5034790;28;20044;-77
2023/10/05 07:40:08;;;;;;;19.15;4.80;;;14.70;99.90;;;;;;5035505;28;20060;-77
2023/10/05 07:42:34;;;;;;;18.88;3.85;;;14.60;99.90;;;;;;5036045;28;20038;-77
2023/10/05 07:45:00;;;;;;;22.95;4.35;;;14.70;99.90;;;;;;5035891;28;20041;-75
2023/10/05 07:47:26;;;;;;;20.02;5.13;;;14.70;99.90;;;;;;5035551;28;20056;-76
2023/10/05 07:49:53;;;;;;;17.60;3.72;;;14.70;99.90;;;;;;5034336;28;20060;-76
2023/10/05 07:52:19;;;;;;;22.73;4.18;;;14.70;99.90;;;;;;5035432;28;20049;-76
2023/10/05 07:54:45;;;;;;;18.67;3.92;;;14.70;99.90;;;;;;5033230;28;20041;-76
2023/10/05 07:57:11;;;;;;;18.27;4.60;;;14.70;99.90;;;;;;5035522;28;20045;-76
2023/10/05 07:59:40;;;;;;;22.10;4.25;;;14.70;99.90;;;;;;5034057;28;20133;-76
2023/10/05 08:02:13;;;;;;;13.52;4.10;;;14.70;99.90;;;;;;5034147;28;20487;-75
2023/10/05 08:04:40;;;;;;;15.55;3.95;;;14.70;99.90;;;;;;5034362;28;20053;-76
2023/10/05 08:07:06;;;;;;;19.52;4.65;;;14.80;99.90;;;;;;5035204;28;20045;-76
2023/10/05 08:09:32;;;;;;;31.00;4.38;;;14.80;99.90;;;;;;5017701;28;20075;-76
2023/10/05 08:11:57;;;;;;;24.52;5.63;;;14.70;99.90;;;;;;5035339;28;20393;-75
2023/10/05 08:14:24;;;;;;;17.35;4.38;;;14.80;99.90;;;;;;5035340;28;20176;-77
2023/10/05 08:16:51;;;;;;;18.15;3.90;;;14.80;99.90;;;;;;5049451;28;20060;-77
2023/10/05 08:19:19;;;;;;;18.88;3.90;;;14.80;99.90;;;;;;5053689;28;20044;-77
2023/10/05 08:21:45;;;;;;;17.58;3.60;;;14.80;99.90;;;;;;5053966;28;20110;-77
2023/10/05 08:24:12;;;;;;;16.77;3.58;;;14.90;99.90;;;;;;5052345;28;20045;-77
2023/10/05 08:26:39;;;;;;;20.60;5.65;;;14.90;99.90;;;;;;5001213;28;20053;-77
2023/10/05 08:29:06;;;;;;;15.30;4.75;;;15.00;99.90;;;;;;5055605;28;20064;-76
2023/10/05 08:31:33;;;;;;;15.40;3.95;;;15.10;99.90;;;;;;5073626;28;20040;-76
2023/10/05 08:34:03;;;;;;;13.60;4.07;;;15.10;99.90;;;;;;5073171;28;20044;-77
2023/10/05 08:36:30;;;;;;;18.33;4.22;;;15.10;99.90;;;;;;5074728;28;20492;-77
2023/10/05 08:38:58;;;;;;;17.30;3.83;;;15.20;99.90;;;;;;5073455;28;20095;-77
2023/10/05 08:41:27;;;;;;;16.27;3.72;;;15.10;99.90;;;;;;5073219;28;20084;-77
2023/10/05 08:43:54;;;;;;;11.48;3.80;;;15.20;99.90;;;;;;5072953;28;20094;-77
2023/10/05 08:46:21;;;;;;;15.07;3.78;;;15.10;99.90;;;;;;5073359;28;20088;-77
2023/10/05 08:48:46;;;;;;;19.88;4.03;;;15.20;99.90;;;;;;5073126;28;20048;-77
2023/10/05 08:51:13;;;;;;;19.83;3.80;;;15.20;99.90;;;;;;5072944;28;20048;-77
2023/10/05 08:53:44;;;;;;;13.10;3.35;;;15.20;99.90;;;;;;5073066;28;20116;-77
2023/10/05 08:56:15;;;;;;;20.70;4.45;;;15.20;99.90;;;;;;5074354;28;20072;-77
2023/10/05 08:58:51;;;;;;;14.15;3.78;;;15.20;99.90;;;;;;5073189;28;20055;-78
2023/10/05 09:01:26;;;;;;;16.17;3.60;;;15.20;99.90;;;;;;5071637;28;20105;-78
2023/10/05 09:04:01;;;;;;;16.00;3.20;;;15.20;99.90;;;;;;5071421;28;20048;-77
2023/10/05 09:06:28;;;;;;;13.93;2.97;;;15.20;99.90;;;;;;5072265;28;20442;-78
2023/10/05 09:09:15;;;;;;;12.40;2.90;;;15.20;99.90;;;;;;5071177;28;20043;-78
2023/10/05 09:11:41;;;;;;;7.47;2.20;;;15.10;99.90;;;;;;5071731;28;20044;-78
2023/10/05 09:14:12;;;;;;;10.88;2.33;;;15.00;99.90;;;;;;5069330;28;20086;-80
2023/10/05 09:16:43;;;;;;;8.32;2.00;;;15.00;99.90;;;;;;5054028;28;20087;-78
2023/10/05 09:19:29;;;;;;;8.40;2.05;;;15.00;99.90;;;;;;5052794;28;20128;-78
2023/10/05 09:24:25;;;;;;;9.70;2.40;;;15.20;99.90;;;;;;5052625;28;20136;-78
2023/10/05 09:27:09;;;;;;;11.65;2.72;;;15.20;99.90;;;;;;5054044;28;20080;-78
2023/10/05 09:29:36;;;;;;;13.48;3.10;;;15.30;99.90;;;;;;5053655;28;20514;-78
2023/10/05 09:32:11;;;;;;;13.23;3.10;;;15.30;99.90;;;;;;5052291;28;20515;-78
2023/10/05 09:34:39;;;;;;;10.80;3.75;;;15.40;99.90;;;;;;5066378;28;20060;-79
2023/10/05 09:37:06;;;;;;;13.30;2.55;;;15.40;99.90;;;;;;5072516;28;20094;-77
2023/10/05 09:39:37;;;;;;;13.48;3.08;;;15.40;99.90;;;;;;5073495;28;20106;-78
2023/10/05 09:42:04;;;;;;;17.10;3.88;;;15.50;99.90;;;;;;5073731;28;20045;-77
2023/10/05 09:44:32;;;;;;;15.85;3.63;;;15.40;99.90;;;;;;5072232;28;20051;-78
2023/10/05 09:46:59;;;;;;;17.88;3.67;;;15.40;99.90;;;;;;5072045;28;20127;-78
2023/10/05 09:49:30;;;;;;;16.83;3.30;;;15.40;99.90;;;;;;5072507;28;20048;-78
2023/10/05 09:51:57;;;;;;;16.38;3.38;;;15.40;99.90;;;;;;5072156;28;20048;-78
2023/10/05 09:54:27;;;;;;;14.88;2.95;;;15.40;99.90;;;;;;5072380;28;20499;-78
2023/10/05 09:56:54;;;;;;;11.32;3.42;;;15.40;99.90;;;;;;5072052;28;20482;-78
2023/10/05 09:59:21;;;;;;;15.82;3.25;;;15.50;99.90;;;;;;5072286;28;20492;-77
2023/10/05 10:01:49;;;;;;;12.82;3.08;;;15.50;99.90;;;;;;5072345;28;20127;-79
2023/10/05 10:04:34;;;;;;;16.85;2.88;;;15.50;99.90;;;;;;5071956;28;20048;-78
2023/10/05 10:07:04;;;;;;;11.50;3.28;;;15.60;99.90;;;;;;5072270;28;20123;-79
2023/10/05 10:09:32;;;;;;;13.23;2.88;;;15.70;99.90;;;;;;5072231;28;20052;-79
2023/10/05 10:12:00;;;;;;;11.32;2.75;;;15.70;99.90;;;;;;5071784;28;20182;-78
2023/10/05 10:14:29;;;;;;;9.65;3.63;;;15.80;99.90;;;;;;5071749;28;20550;-79
2023/10/05 10:17:00;;;;;;;11.13;2.10;;;15.80;99.90;;;;;;5071536;28;20058;-77
2023/10/05 10:19:37;;;;;;;12.15;2.50;;;15.70;99.90;;;;;;5071818;28;20048;-78
2023/10/05 10:22:03;;;;;;;9.27;2.28;;;15.70;99.90;;;;;;5072074;28;20048;-77
2023/10/05 10:24:29;;;;;;;14.30;3.40;;;15.70;99.90;;;;;;5073001;28;20048;-78
2023/10/05 10:27:08;;;;;;;13.80;2.88;;;15.70;99.90;;;;;;5071827;28;20048;-77
2023/10/05 10:29:44;;;;;;;20.20;3.33;;;15.70;99.90;;;;;;5071928;28;20059;-78
2023/10/05 10:32:18;;;;;;;13.80;3.10;;;15.70;99.90;;;;;;5072923;28;20063;-78
2023/10/05 10:34:50;;;;;;;11.07;3.22;;;15.70;99.90;;;;;;5071622;28;20484;-79
2023/10/05 10:37:43;;;;;;;16.73;3.05;;;15.80;99.90;;;;;;5072065;28;20496;-77
2023/10/05 10:40:25;;;;;;;9.85;2.92;;;15.90;99.90;;;;;;5071484;28;20060;-77
2023/10/05 10:42:54;;;;;;;17.38;3.90;;;15.90;99.90;;;;;;5071301;28;20053;-77
2023/10/05 10:45:28;;;;;;;15.40;4.75;;;15.90;99.90;;;;;;5071572;28;20040;-77
2023/10/05 10:47:54;;;;;;;12.63;5.10;;;15.80;99.90;;;;;;5048041;28;20117;-77
2023/10/05 10:50:30;;;;;;;17.15;5.35;;;15.70;99.90;;;;;;5031789;28;20133;-77
2023/10/05 10:52:58;;;;;;;13.18;5.10;;;15.60;99.90;;;;;;5031927;28;20049;-77
2023/10/05 10:55:32;;;;;;;14.73;5.28;;;15.60;99.90;;;;;;5032786;28;20048;-77
2023/10/05 10:57:59;;;;;;;14.15;4.53;;;15.60;99.90;;;;;;5032745;28;20157;-78
2023/10/05 11:03:11;;;;;;;15.45;2.53;;;15.60;99.90;;;;;;5031909;28;20443;-79
2023/10/05 11:05:47;;;;;;;11.23;2.53;;;15.50;99.90;;;;;;5031776;28;20081;-78
2023/10/05 11:08:20;;;;;;;8.10;2.05;;;15.40;99.90;;;;;;5031432;28;20439;-79
2023/10/05 11:10:56;;;;;;;;;;;15.50;99.90;;;;;;5035926;28;20045;-78
2023/10/05 11:13:25;;;;;;;10.15;2.60;;;15.50;99.90;;;;;;5038802;28;19927;-79
2023/10/05 11:15:58;;;;;;;8.27;2.28;;;15.70;99.90;;;;;;5031651;28;20045;-78
2023/10/05 11:18:30;;;;;;;8.57;2.15;;;15.60;99.90;;;;;;5031485;28;20096;-78
2023/10/05 11:21:05;;;;;;;6.47;1.55;;;15.70;99.90;;;;;;5031335;28;20427;-78
2023/10/05 11:23:42;;;;;;;8.05;1.55;;;15.70;99.90;;;;;;5031675;28;20100;-78
2023/10/05 11:26:33;;;;;;;8.35;1.42;;;15.70;99.90;;;;;;5031622;28;20092;-78
2023/10/05 11:29:55;;;;;;;10.57;1.95;;;15.70;99.90;;;;;;5033593;28;20520;-77
2023/10/05 11:31:51;;;;;;;12.68;1.90;;;15.90;99.90;;;;;;5021069;28;20053;-78
2023/10/05 11:34:19;;;;;;;12.15;2.65;;;16.00;99.90;;;;;;5034784;28;20042;-77
2023/10/05 11:36:47;;;;;;;7.78;2.30;;;16.10;99.90;;;;;;5034730;28;20053;-78
2023/10/05 11:39:22;;;;;;;7.95;2.10;;;16.20;99.90;;;;;;5034468;28;20050;-78
2023/10/05 11:41:49;;;;;;;6.90;1.70;;;16.20;99.90;;;;;;5034604;28;20137;-77
2023/10/05 11:44:23;;;;;;;7.68;1.90;;;16.30;99.90;;;;;;5034518;28;20083;-78
2023/10/05 11:46:57;;;;;;;9.90;1.98;;;16.40;99.90;;;;;;5034842;28;20061;-77
2023/10/05 11:49:30;;;;;;;6.20;1.80;;;16.30;99.90;;;;;;5034676;28;20049;-77
2023/10/05 11:51:57;;;;;;;7.35;2.05;;;16.40;99.90;;;;;;5034315;28;20060;-77
2023/10/05 11:54:30;;;;;;;8.75;1.90;;;16.20;99.90;;;;;;5036147;28;20104;-77
2023/10/05 11:57:05;;;;;;;7.55;2.03;;;16.20;99.90;;;;;;5054045;28;20496;-77
2023/10/05 11:59:32;;;;;;;5.85;1.55;;;16.20;99.90;;;;;;5054242;28;20053;-77
2023/10/05 12:01:58;;;;;;;8.88;2.00;;;16.30;99.90;;;;;;5054331;28;20095;-76
2023/10/05 12:04:23;;;;;;;9.23;2.00;;;16.30;99.90;;;;;;5054178;28;20044;-77
2023/10/05 12:06:58;;;;;;;8.15;2.63;;;16.30;99.90;;;;;;5054125;28;20400;-76
2023/10/05 12:09:42;;;;;;;9.68;2.10;;;16.40;99.90;;;;;;5054316;28;20106;-76
2023/10/05 12:12:13;;;;;;;6.10;2.22;;;16.40;99.90;;;;;;5053829;28;20045;-76
2023/10/05 12:14:41;;;;;;;9.65;2.60;;;16.30;99.90;;;;;;5053920;28;20456;-76
2023/10/05 12:17:07;;;;;;;7.55;2.60;;;16.30;99.90;;;;;;5052121;28;20110;-75
2023/10/05 12:19:33;;;;;;;8.07;2.45;;;16.30;99.90;;;;;;5033928;28;20054;-76
2023/10/05 12:22:01;;;;;;;10.23;2.83;;;16.30;99.90;;;;;;5033794;28;20053;-76
2023/10/05 12:24:28;;;;;;;12.35;2.65;;;16.30;99.90;;;;;;5035134;28;20038;-77
2023/10/05 12:26:54;;;;;;;10.38;2.17;;;16.40;99.90;;;;;;5033723;28;20088;-77
2023/10/05 12:29:20;;;;;;;9.93;2.33;;;16.50;99.90;;;;;;5033550;28;20527;-76
2023/10/05 12:31:49;;;;;;;10.40;2.22;;;16.50;99.90;;;;;;5033661;28;20084;-77
2023/10/05 12:34:15;;;;;;;10.07;2.50;;;16.70;99.90;;;;;;5035109;28;20037;-76
2023/10/05 12:36:49;;;;;;;10.95;1.90;;;16.80;99.90;;;;;;5033430;28;20501;-76
2023/10/05 12:39:27;;;;;;;11.32;2.38;;;16.80;99.90;;;;;;5032710;28;20053;-76
2023/10/05 12:41:56;;;;;;;12.27;2.67;;;16.80;99.90;;;;;;5031556;28;20592;-76
2023/10/05 12:44:22;;;;;;;11.23;2.25;;;16.80;99.90;;;;;;5031611;28;20042;-77
2023/10/05 12:46:48;;;;;;;11.63;3.17;;;16.80;99.90;;;;;;5032014;28;20103;-76
2023/10/05 12:49:15;;;;;;;9.70;3.20;;;16.80;99.90;;;;;;5032741;28;20049;-76
2023/10/05 12:51:46;;;;;;;16.10;4.32;;;16.80;99.90;;;;;;5033374;28;20546;-77
2023/10/05 12:54:18;;;;;;;8.88;4.00;;;16.80;99.90;;;;;;5034420;28;20468;-76
2023/10/05 12:56:49;;;;;;;15.13;4.20;;;16.70;99.90;;;;;;5034170;28;20103;-78
2023/10/05 12:59:16;;;;;;;12.45;4.40;;;16.50;99.90;;;;;;5032754;28;20045;-77
2023/10/05 13:01:41;;;;;;;21.33;5.50;;;16.40;99.90;;;;;;5033114;28;20053;-78
2023/10/05 13:04:12;;;;;;;13.25;3.80;;;16.40;99.90;;;;;;5033275;28;20094;-77
2023/10/05 13:06:39;;;;;;;17.13;3.97;;;16.30;99.90;;;;;;5033152;28;20416;-77
2023/10/05 13:09:11;;;;;;;11.82;3.53;;;16.40;99.90;;;;;;5032755;28;20045;-78
2023/10/05 13:11:47;;;;;;;13.05;4.07;;;16.50;99.90;;;;;;5049613;28;20412;-77
2023/10/05 13:14:18;;;;;;;9.10;3.88;;;16.60;99.90;;;;;;5052764;28;20053;-78
2023/10/05 13:16:48;;;;;;;17.70;4.22;;;16.60;99.90;;;;;;5072236;28;20119;-76
2023/10/05 13:19:14;;;;;;;14.30;4.47;;;16.60;99.90;;;;;;5062414;28;20499;-77
2023/10/05 13:21:42;;;;;;;17.17;5.72;;;16.60;99.90;;;;;;5032895;28;20046;-76
2023/10/05 13:24:11;;;;;;;21.00;4.53;;;16.60;99.90;;;;;;5032655;28;20413;-76
2023/10/05 13:26:45;;;;;;;17.42;4.63;;;16.60;99.90;;;;;;5032632;28;20095;-76
2023/10/05 13:29:12;;;;;;;14.13;4.78;;;16.50;99.90;;;;;;5066417;28;20052;-77